logo
Search for airport 
image banner adimage banner adimage banner ad
image banner ad

SNHE - Fazenda Canuana

Located in Formoso Do Araguaia, Brazil

ICAO - SNHE, IATA -

Data provided by Airmate  

General information

Coordinates: S11°58'39" W49°54'29"
Elevation is 787 feet MSL.
Magnetic variation is -21.10812853° East
View others Airports in Tocatins

Operational data

Special qualification required
Current time UTC:
Current local time:
Weather at : - ( 0 km )
METAR: CYDN 220851Z AUTO 35008KT 6SM -RA BR FEW006 SCT034 BKN050 OVC071 07/07 A2979 RMK PCPN 3.5MM PAST HR SLP101
View NOTAMs / SUP AIP / TFR affecting this airport [VIEW]
Communications frequencies: [VIEW]

Runways:

RWY identifierQFULength (ft)Width (ft)SurfaceLDA (ft)
08358992EARTH
26358992EARTH

Airport contact information

Address: Formoso Do Araguaia Brazil

Satellite view of SNHE